createdAt,value
2018-05-02T00:01:37.562Z,90.10
2018-05-02T00:04:04.986Z,90.20
2018-05-02T00:06:32.419Z,90.30
2018-05-02T00:09:00.093Z,90.30
2018-05-02T00:11:27.506Z,90.10
2018-05-02T00:13:54.922Z,90.00
2018-05-02T00:16:22.345Z,90.00
2018-05-02T00:18:49.766Z,90.00
2018-05-02T00:21:17.195Z,89.60
2018-05-02T00:23:44.607Z,89.20
2018-05-02T00:26:12.031Z,89.60
2018-05-02T00:28:39.502Z,89.60
2018-05-02T00:31:06.862Z,89.50
2018-05-02T00:33:34.286Z,89.40
2018-05-02T00:36:01.708Z,89.10
2018-05-02T00:38:29.126Z,88.90
2018-05-02T00:40:56.547Z,88.70
2018-05-02T00:43:23.975Z,87.10
2018-05-02T00:45:51.391Z,86.60
2018-05-02T00:48:18.854Z,86.10
2018-05-02T00:50:46.281Z,85.80
2018-05-02T00:53:13.711Z,86.20
2018-05-02T00:55:41.120Z,86.20
2018-05-02T00:58:08.533Z,85.50
2018-05-02T01:00:35.976Z,85.70
2018-05-02T01:03:03.399Z,85.50
2018-05-02T01:05:30.824Z,85.20
2018-05-02T01:07:58.264Z,84.90
2018-05-02T01:10:25.677Z,84.80
2018-05-02T01:12:53.094Z,85.20
2018-05-02T01:15:20.524Z,85.10
2018-05-02T01:17:47.934Z,85.10
2018-05-02T01:20:15.622Z,85.20
2018-05-02T01:22:43.038Z,84.80
2018-05-02T01:25:10.460Z,84.30
2018-05-02T01:27:37.898Z,84.20
2018-05-02T01:30:05.314Z,83.50
2018-05-02T01:32:32.734Z,82.70
2018-05-02T01:35:00.154Z,82.30
2018-05-02T01:37:28.330Z,82.60
2018-05-02T01:39:55.766Z,82.60
2018-05-02T01:42:23.195Z,83.70
2018-05-02T01:44:50.628Z,85.30
2018-05-02T01:47:18.043Z,86.00
2018-05-02T01:49:45.469Z,86.20
2018-05-02T01:52:12.883Z,86.10
2018-05-02T01:54:40.326Z,86.20
2018-05-02T01:57:07.755Z,86.20
2018-05-02T01:59:35.167Z,86.20
2018-05-02T02:02:02.590Z,85.90
2018-05-02T02:04:30.011Z,85.80
2018-05-02T02:06:57.430Z,86.10
2018-05-02T02:09:24.863Z,86.20
2018-05-02T02:11:52.277Z,85.80
2018-05-02T02:14:19.709Z,85.10
2018-05-02T02:16:47.149Z,84.80
2018-05-02T02:19:14.566Z,83.60
2018-05-02T02:21:41.994Z,83.30
2018-05-02T02:24:09.414Z,82.90
2018-05-02T02:26:36.840Z,82.70
2018-05-02T02:29:04.265Z,82.80
2018-05-02T02:31:31.687Z,83.30
2018-05-02T02:33:59.141Z,83.50
2018-05-02T02:36:26.530Z,83.60
2018-05-02T02:38:53.950Z,84.20
2018-05-02T02:41:21.369Z,84.50
2018-05-02T02:43:48.797Z,84.00
2018-05-02T02:46:16.234Z,83.90
2018-05-02T02:48:43.655Z,83.60
2018-05-02T02:51:11.078Z,82.80
2018-05-02T02:53:38.501Z,82.20
2018-05-02T02:56:05.948Z,82.00
2018-05-02T02:58:33.359Z,81.70
2018-05-02T03:01:00.774Z,81.70
2018-05-02T03:03:28.214Z,81.60
2018-05-02T03:05:55.625Z,81.50
2018-05-02T03:08:23.295Z,81.60
2018-05-02T03:10:50.744Z,81.80
2018-05-02T03:13:18.159Z,81.70
2018-05-02T03:15:45.595Z,81.30
2018-05-02T03:18:12.997Z,81.00
2018-05-02T03:20:40.418Z,80.70
2018-05-02T03:23:08.106Z,80.50
2018-05-02T03:25:35.530Z,80.00
2018-05-02T03:28:02.949Z,80.10
2018-05-02T03:30:30.369Z,80.30
2018-05-02T03:32:57.810Z,80.30
2018-05-02T03:35:25.238Z,80.20
2018-05-02T03:37:52.668Z,80.40
2018-05-02T03:40:20.085Z,80.70
2018-05-02T03:42:47.513Z,81.40
2018-05-02T03:45:14.943Z,82.10
2018-05-02T03:47:42.353Z,81.90
2018-05-02T03:50:09.773Z,81.50
2018-05-02T03:52:37.201Z,81.90
2018-05-02T03:55:04.630Z,82.40
2018-05-02T03:57:32.049Z,83.40
2018-05-02T04:00:11.141Z,84.20
2018-05-02T04:02:50.384Z,83.60
2018-05-02T04:05:29.569Z,82.40
2018-05-02T04:07:57.002Z,82.20
2018-05-02T04:10:24.434Z,82.50
2018-05-02T04:12:51.868Z,82.90
2018-05-02T04:15:19.294Z,83.20
2018-05-02T04:17:46.726Z,83.60
2018-05-02T04:20:14.144Z,83.80
2018-05-02T04:22:41.571Z,83.80
2018-05-02T04:25:09.002Z,83.80
2018-05-02T04:27:36.413Z,83.60
2018-05-02T04:30:03.842Z,83.60
2018-05-02T04:32:31.253Z,83.60
2018-05-02T04:34:58.690Z,83.90
2018-05-02T04:37:26.109Z,83.40
2018-05-02T04:39:53.533Z,83.60
2018-05-02T04:42:20.964Z,83.80
2018-05-02T04:44:48.385Z,83.70
2018-05-02T04:47:15.811Z,83.70
2018-05-02T04:49:43.234Z,83.80
2018-05-02T04:52:10.659Z,83.30
2018-05-02T04:54:38.081Z,83.00
2018-05-02T04:57:05.505Z,82.50
2018-05-02T04:59:33.718Z,80.80
2018-05-02T05:02:01.121Z,80.80
2018-05-02T05:04:29.358Z,80.60
2018-05-02T05:06:56.769Z,81.00
2018-05-02T05:09:24.194Z,81.30
2018-05-02T05:11:51.638Z,81.50
2018-05-02T05:14:19.069Z,81.70
2018-05-02T05:16:46.506Z,81.50
2018-05-02T05:19:13.935Z,81.10
2018-05-02T05:21:41.372Z,81.20
2018-05-02T05:24:08.782Z,81.40
2018-05-02T05:26:36.191Z,80.70
2018-05-02T05:29:03.630Z,80.80
2018-05-02T05:31:31.041Z,80.60
2018-05-02T05:33:58.458Z,80.70
2018-05-02T05:36:25.895Z,81.00
2018-05-02T05:38:53.322Z,81.00
2018-05-02T05:41:20.729Z,80.70
2018-05-02T05:43:48.164Z,80.40
2018-05-02T05:46:15.610Z,80.30
2018-05-02T05:48:43.034Z,79.50
2018-05-02T05:51:10.474Z,78.90
2018-05-02T05:53:37.895Z,78.50
2018-05-02T05:56:05.341Z,77.80
2018-05-02T05:58:32.776Z,77.50
2018-05-02T06:01:00.212Z,77.70
2018-05-02T06:03:27.639Z,77.50
2018-05-02T06:05:55.055Z,77.50
2018-05-02T06:08:22.477Z,77.40
2018-05-02T06:10:49.901Z,76.80
2018-05-02T06:13:17.329Z,76.00
2018-05-02T06:15:44.748Z,74.20
2018-05-02T06:18:12.183Z,73.40
2018-05-02T06:20:39.614Z,73.60
2018-05-02T06:23:07.071Z,73.70
2018-05-02T06:25:34.470Z,73.60
2018-05-02T06:28:01.914Z,73.50
2018-05-02T06:30:29.354Z,72.60
2018-05-02T06:32:56.766Z,72.10
2018-05-02T06:35:24.190Z,72.20
2018-05-02T06:37:51.786Z,71.30
2018-05-02T06:40:19.087Z,71.10
2018-05-02T06:42:46.530Z,70.00
2018-05-02T06:45:13.950Z,68.50
2018-05-02T06:47:41.386Z,67.50
2018-05-02T06:50:08.803Z,68.00
2018-05-02T06:52:36.243Z,68.20
2018-05-02T06:55:03.687Z,67.20
2018-05-02T06:57:31.107Z,66.40
2018-05-02T06:59:58.523Z,65.20
2018-05-02T07:02:25.949Z,64.20
2018-05-02T07:04:53.391Z,64.00
2018-05-02T07:07:20.822Z,61.70
2018-05-02T07:09:48.246Z,60.00
2018-05-02T07:12:15.706Z,60.00
2018-05-02T07:14:43.126Z,59.10
2018-05-02T07:17:10.538Z,57.40
2018-05-02T07:19:37.981Z,56.10
2018-05-02T07:22:05.402Z,56.30
2018-05-02T07:24:32.834Z,55.20
2018-05-02T07:27:00.270Z,56.70
2018-05-02T07:29:27.699Z,55.40
2018-05-02T07:31:55.119Z,57.00
2018-05-02T07:34:22.545Z,56.50
2018-05-02T07:36:49.978Z,55.50
2018-05-02T07:39:17.413Z,54.70
2018-05-02T07:41:44.834Z,52.80
2018-05-02T07:44:12.278Z,52.40
2018-05-02T07:46:39.698Z,52.60
2018-05-02T07:49:07.136Z,51.80
2018-05-02T07:51:34.562Z,52.90
2018-05-02T07:54:01.991Z,51.40
2018-05-02T07:56:29.443Z,50.30
2018-05-02T07:58:56.846Z,49.90
2018-05-02T08:01:24.285Z,50.50
2018-05-02T08:03:51.698Z,50.80
2018-05-02T08:06:19.142Z,51.00
2018-05-02T08:08:46.549Z,51.50
2018-05-02T08:11:13.988Z,51.90
2018-05-02T08:13:41.427Z,51.70
2018-05-02T08:16:08.883Z,50.70
2018-05-02T08:18:36.310Z,50.50
2018-05-02T08:21:03.746Z,49.50
2018-05-02T08:23:31.178Z,48.40
2018-05-02T08:25:58.623Z,47.90
2018-05-02T08:28:26.058Z,48.90
2018-05-02T08:30:53.504Z,47.60
2018-05-02T08:33:20.949Z,47.40
2018-05-02T08:35:48.374Z,46.90
2018-05-02T08:38:15.833Z,47.90
2018-05-02T08:40:43.297Z,47.90
2018-05-02T08:43:10.732Z,48.10
2018-05-02T08:45:38.522Z,47.90
2018-05-02T08:48:05.966Z,48.50
2018-05-02T08:50:33.434Z,48.20
2018-05-02T08:53:00.838Z,47.30
2018-05-02T08:55:29.027Z,48.40
2018-05-02T08:57:56.475Z,48.40
2018-05-02T09:00:23.907Z,48.90
2018-05-02T09:02:51.352Z,48.30
2018-05-02T09:05:18.774Z,48.40
2018-05-02T09:07:46.216Z,49.10
2018-05-02T09:10:13.650Z,48.30
2018-05-02T09:12:41.084Z,48.40
2018-05-02T09:15:08.519Z,48.80
2018-05-02T09:17:35.950Z,50.50
2018-05-02T09:20:03.390Z,50.70
2018-05-02T09:22:30.825Z,50.30
2018-05-02T09:24:58.269Z,48.60
2018-05-02T09:27:25.713Z,46.90
2018-05-02T09:29:53.139Z,46.30
2018-05-02T09:32:20.606Z,46.10
2018-05-02T09:34:48.013Z,45.80
2018-05-02T09:37:15.463Z,45.60
2018-05-02T09:39:42.917Z,45.30
2018-05-02T09:42:10.321Z,45.50
2018-05-02T09:44:37.738Z,45.90
2018-05-02T09:47:05.193Z,45.30
2018-05-02T09:49:32.622Z,43.60
2018-05-02T09:52:00.097Z,43.30
2018-05-02T09:54:27.495Z,42.60
2018-05-02T09:56:54.914Z,41.50
2018-05-02T09:59:22.362Z,40.30
2018-05-02T10:01:49.778Z,40.90
2018-05-02T10:04:17.202Z,40.80
2018-05-02T10:06:44.635Z,41.40
2018-05-02T10:09:12.068Z,40.30
2018-05-02T10:11:39.490Z,40.90
2018-05-02T10:14:06.926Z,41.50
2018-05-02T10:16:34.350Z,40.60
2018-05-02T10:19:01.783Z,41.60
2018-05-02T10:21:29.213Z,41.50
2018-05-02T10:23:56.692Z,41.20
2018-05-02T10:26:24.149Z,39.70
2018-05-02T10:28:51.574Z,40.30
2018-05-02T10:31:18.985Z,40.00
2018-05-02T10:33:46.407Z,41.20
2018-05-02T10:36:14.639Z,40.20
2018-05-02T10:38:42.054Z,40.20
2018-05-02T10:41:09.481Z,40.40
2018-05-02T10:43:36.917Z,40.00
2018-05-02T10:46:04.329Z,39.70
2018-05-02T10:48:31.770Z,38.60
2018-05-02T10:50:59.962Z,35.40
2018-05-02T10:53:27.399Z,35.40
2018-05-02T10:55:54.839Z,35.20
2018-05-02T10:58:22.257Z,34.80
2018-05-02T11:00:49.675Z,33.70
2018-05-02T11:03:17.111Z,33.00
2018-05-02T11:05:44.545Z,32.20
2018-05-02T11:08:11.990Z,32.60
2018-05-02T11:10:39.406Z,31.10
2018-05-02T11:13:06.842Z,31.90
2018-05-02T11:15:34.282Z,30.30
2018-05-02T11:18:01.737Z,30.10
2018-05-02T11:20:29.153Z,29.10
2018-05-02T11:22:56.594Z,29.20
2018-05-02T11:25:24.029Z,28.90
2018-05-02T11:27:51.473Z,30.20
2018-05-02T11:30:18.893Z,30.70
2018-05-02T11:32:46.329Z,31.30
2018-05-02T11:35:13.765Z,30.40
2018-05-02T11:37:41.224Z,30.00
2018-05-02T11:40:08.666Z,30.40
2018-05-02T11:42:36.081Z,30.50
2018-05-02T11:45:03.526Z,29.20
2018-05-02T11:47:30.949Z,28.70
2018-05-02T11:49:58.393Z,29.00
2018-05-02T11:52:25.813Z,28.00
2018-05-02T11:54:53.257Z,28.20
2018-05-02T11:57:20.674Z,28.70
2018-05-02T11:59:48.097Z,28.70
2018-05-02T12:02:15.535Z,29.10
2018-05-02T12:04:42.962Z,28.20
2018-05-02T12:07:10.405Z,29.10
2018-05-02T12:09:37.850Z,29.10
2018-05-02T12:12:05.281Z,29.30
2018-05-02T12:14:32.710Z,30.00
2018-05-02T12:17:00.145Z,30.40
2018-05-02T12:19:27.567Z,30.60
2018-05-02T12:21:55.058Z,29.70
2018-05-02T12:24:22.422Z,30.40
2018-05-02T12:26:49.853Z,29.30
2018-05-02T12:29:17.293Z,29.40
2018-05-02T12:31:44.718Z,29.30
2018-05-02T12:34:12.225Z,30.30
2018-05-02T12:36:39.643Z,30.00
2018-05-02T12:39:07.083Z,29.70
2018-05-02T12:41:34.502Z,29.50
2018-05-02T12:44:01.941Z,28.80
2018-05-02T12:46:29.362Z,29.00
2018-05-02T12:48:56.819Z,29.70
2018-05-02T12:51:24.246Z,29.50
2018-05-02T12:53:51.659Z,30.50
2018-05-02T12:56:19.220Z,29.60
2018-05-02T12:58:46.541Z,29.30
2018-05-02T13:01:14.727Z,31.50
2018-05-02T13:03:42.157Z,31.50
2018-05-02T13:06:09.581Z,31.10
2018-05-02T13:08:37.017Z,31.20
2018-05-02T13:11:04.454Z,31.80
2018-05-02T13:13:31.902Z,32.60
2018-05-02T13:15:59.318Z,33.30
2018-05-02T13:18:26.753Z,33.90
2018-05-02T13:20:54.194Z,34.40
2018-05-02T13:23:21.671Z,35.20
2018-05-02T13:25:49.084Z,35.00
2018-05-02T13:28:16.506Z,35.20
2018-05-02T13:30:43.931Z,35.60
2018-05-02T13:33:11.475Z,35.30
2018-05-02T13:35:39.632Z,35.80
2018-05-02T13:38:07.065Z,35.20
2018-05-02T13:40:34.486Z,35.10
2018-05-02T13:43:01.930Z,34.80
2018-05-02T13:45:29.335Z,34.30
2018-05-02T13:47:56.786Z,33.40
2018-05-02T13:50:24.220Z,33.60
2018-05-02T13:52:51.645Z,33.20
2018-05-02T13:55:19.082Z,32.70
2018-05-02T13:57:46.520Z,32.60
2018-05-02T14:00:13.946Z,32.50
2018-05-02T14:02:41.389Z,32.20
2018-05-02T14:05:08.862Z,33.10
2018-05-02T14:07:36.290Z,33.30
2018-05-02T14:10:04.502Z,34.20
2018-05-02T14:12:31.926Z,34.20
2018-05-02T14:14:59.353Z,34.80
2018-05-02T14:17:26.808Z,34.00
2018-05-02T14:19:54.233Z,33.00
2018-05-02T14:22:21.647Z,32.70
2018-05-02T14:24:49.138Z,32.60
2018-05-02T14:27:16.534Z,32.80
2018-05-02T14:29:43.983Z,33.60
2018-05-02T14:32:11.424Z,33.90
2018-05-02T14:34:38.843Z,33.80
2018-05-02T14:37:06.278Z,34.00
2018-05-02T14:39:33.724Z,33.80
2018-05-02T14:42:01.171Z,34.70
2018-05-02T14:44:28.605Z,35.40
2018-05-02T14:46:56.039Z,35.60
2018-05-02T14:49:23.453Z,36.00
2018-05-02T14:51:50.889Z,35.80
2018-05-02T14:54:18.333Z,36.50
2018-05-02T14:56:45.775Z,37.80
2018-05-02T14:59:13.281Z,36.20
2018-05-02T15:01:40.657Z,36.00
2018-05-02T15:04:08.095Z,35.60
2018-05-02T15:06:35.541Z,36.20
2018-05-02T15:09:02.983Z,36.50
2018-05-02T15:11:30.427Z,36.50
2018-05-02T15:13:57.854Z,36.00
2018-05-02T15:16:25.294Z,36.80
2018-05-02T15:18:52.719Z,37.50
2018-05-02T15:21:20.141Z,36.90
2018-05-02T15:23:47.570Z,37.60
2018-05-02T15:26:15.037Z,37.70
2018-05-02T15:28:42.458Z,37.80
2018-05-02T15:31:09.938Z,37.80
2018-05-02T15:33:38.145Z,38.40
2018-05-02T15:36:05.590Z,38.40
2018-05-02T15:38:33.051Z,38.40
2018-05-02T15:41:00.478Z,38.80
2018-05-02T15:43:27.915Z,39.70
2018-05-02T15:45:55.357Z,40.00
2018-05-02T15:48:22.791Z,40.70
2018-05-02T15:50:50.251Z,40.20
2018-05-02T15:53:17.674Z,40.40
2018-05-02T15:55:45.235Z,40.90
2018-05-02T15:58:12.735Z,41.20
2018-05-02T16:00:40.086Z,40.60
2018-05-02T16:03:07.518Z,40.50
2018-05-02T16:05:34.950Z,40.70
2018-05-02T16:08:02.394Z,41.20
2018-05-02T16:10:29.811Z,41.60
2018-05-02T16:12:57.482Z,41.10
2018-05-02T16:15:24.902Z,41.30
2018-05-02T16:17:52.323Z,42.00
2018-05-02T16:20:19.748Z,42.20
2018-05-02T16:22:47.166Z,43.10
2018-05-02T16:25:14.586Z,42.10
2018-05-02T16:27:42.097Z,42.10
2018-05-02T16:30:09.449Z,41.70
2018-05-02T16:32:36.949Z,43.30
2018-05-02T16:35:04.294Z,42.70
2018-05-02T16:37:31.763Z,43.00
2018-05-02T16:39:59.174Z,42.00
2018-05-02T16:42:26.642Z,40.90
2018-05-02T16:44:54.082Z,41.20
2018-05-02T16:47:21.493Z,41.70
2018-05-02T16:49:48.952Z,42.10
2018-05-02T16:52:16.377Z,42.20
2018-05-02T16:54:43.794Z,42.80
2018-05-02T16:57:11.234Z,43.20
2018-05-02T16:59:38.661Z,43.40
2018-05-02T17:02:06.118Z,43.80
2018-05-02T17:04:33.576Z,43.60
2018-05-02T17:07:00.970Z,43.60
2018-05-02T17:09:28.418Z,43.80
2018-05-02T17:11:55.837Z,43.90
2018-05-02T17:14:23.322Z,44.20
2018-05-02T17:16:50.787Z,44.80
2018-05-02T17:19:18.175Z,44.40
2018-05-02T17:21:45.604Z,44.70
2018-05-02T17:24:13.026Z,44.90
2018-05-02T17:26:40.478Z,44.70
2018-05-02T17:29:07.936Z,45.10
2018-05-02T17:31:35.367Z,45.30
2018-05-02T17:34:02.809Z,45.90
2018-05-02T17:36:30.246Z,45.90
2018-05-02T17:38:57.686Z,46.40
2018-05-02T17:41:25.126Z,46.90
2018-05-02T17:43:52.567Z,47.50
2018-05-02T17:46:20.038Z,49.50
2018-05-02T17:48:48.255Z,50.70
2018-05-02T17:51:15.743Z,50.70
2018-05-02T17:53:43.175Z,53.60
2018-05-02T17:56:10.614Z,56.00
2018-05-02T17:58:38.055Z,60.40
2018-05-02T18:01:05.483Z,58.50
2018-05-02T18:03:33.675Z,61.80
2018-05-02T18:06:01.191Z,64.00
2018-05-02T18:08:28.609Z,66.90
2018-05-02T18:10:56.043Z,68.90
2018-05-02T18:13:23.469Z,68.70
2018-05-02T18:15:50.895Z,68.50
2018-05-02T18:18:18.325Z,68.40
2018-05-02T18:20:45.745Z,68.90
2018-05-02T18:23:13.167Z,71.60
2018-05-02T18:25:40.596Z,71.60
2018-05-02T18:28:08.101Z,71.50
2018-05-02T18:30:35.467Z,71.10
2018-05-02T18:33:02.910Z,71.90
2018-05-02T18:35:30.331Z,72.10
2018-05-02T18:37:57.761Z,71.40
2018-05-02T18:40:25.186Z,71.20
2018-05-02T18:42:52.639Z,71.40
2018-05-02T18:45:20.059Z,71.80
2018-05-02T18:47:47.482Z,72.10
2018-05-02T18:50:14.913Z,71.20
2018-05-02T18:52:42.342Z,72.80
2018-05-02T18:55:09.772Z,73.00
2018-05-02T18:57:37.182Z,74.20
2018-05-02T19:00:05.598Z,74.10
2018-05-02T19:02:33.038Z,76.30
2018-05-02T19:05:00.466Z,76.70
2018-05-02T19:07:27.896Z,77.00
2018-05-02T19:09:55.346Z,77.20
2018-05-02T19:12:29.934Z,77.60
2018-05-02T19:14:57.372Z,78.10
2018-05-02T19:17:24.806Z,78.90
2018-05-02T19:19:58.103Z,79.70
2018-05-02T19:22:25.705Z,81.00
2018-05-02T19:24:58.891Z,80.90
2018-05-02T19:27:26.322Z,81.40
2018-05-02T19:29:53.825Z,80.90
2018-05-02T19:32:27.621Z,80.60
2018-05-02T19:34:55.054Z,80.50
2018-05-02T19:37:22.468Z,80.20
2018-05-02T19:39:55.478Z,80.70
2018-05-02T19:42:28.592Z,81.40
2018-05-02T19:44:56.034Z,81.10
2018-05-02T19:47:23.506Z,81.40
2018-05-02T19:49:50.921Z,81.50
2018-05-02T19:52:24.687Z,81.90
2018-05-02T19:54:52.109Z,81.80
2018-05-02T19:57:19.535Z,81.60
2018-05-02T19:59:46.993Z,81.50
2018-05-02T20:02:19.969Z,81.10
2018-05-02T20:04:47.418Z,80.50
2018-05-02T20:07:20.519Z,78.80
2018-05-02T20:09:53.680Z,75.60
2018-05-02T20:12:26.784Z,76.30
2018-05-02T20:14:54.209Z,77.90
2018-05-02T20:17:21.640Z,78.60
2018-05-02T20:19:49.098Z,78.10
2018-05-02T20:22:16.527Z,78.00
2018-05-02T20:24:43.970Z,78.20
2018-05-02T20:27:11.393Z,78.30
2018-05-02T20:29:38.809Z,78.70
2018-05-02T20:32:06.245Z,78.20
2018-05-02T20:34:33.682Z,77.90
2018-05-02T20:37:01.106Z,78.20
2018-05-02T20:39:28.525Z,78.00
2018-05-02T20:41:55.991Z,78.20
2018-05-02T20:44:23.409Z,78.20
2018-05-02T20:46:50.857Z,78.40
2018-05-02T20:49:18.334Z,77.30
2018-05-02T20:51:46.467Z,77.90
2018-05-02T20:54:13.891Z,77.90
2018-05-02T20:56:41.364Z,77.80
2018-05-02T20:59:08.816Z,77.40
2018-05-02T21:01:36.243Z,77.50
2018-05-02T21:04:03.683Z,77.90
2018-05-02T21:06:31.114Z,78.10
2018-05-02T21:08:58.537Z,78.00
2018-05-02T21:11:25.994Z,77.90
2018-05-02T21:13:53.409Z,77.50
2018-05-02T21:16:20.873Z,77.70
2018-05-02T21:18:48.808Z,77.80
2018-05-02T21:21:16.262Z,77.80
2018-05-02T21:23:43.697Z,77.80
2018-05-02T21:26:11.131Z,78.10
2018-05-02T21:28:39.381Z,78.40
2018-05-02T21:31:06.842Z,79.00
2018-05-02T21:33:34.306Z,79.60
2018-05-02T21:36:01.734Z,80.10
2018-05-02T21:38:29.165Z,80.30
2018-05-02T21:40:56.629Z,82.60
2018-05-02T21:43:24.053Z,83.30
2018-05-02T21:45:51.486Z,83.60
2018-05-02T21:48:18.917Z,84.40
2018-05-02T21:50:46.387Z,84.90
2018-05-02T21:53:13.833Z,84.80
2018-05-02T21:55:41.289Z,84.80
2018-05-02T21:58:08.734Z,85.10
2018-05-02T22:00:36.207Z,85.50
2018-05-02T22:03:04.474Z,85.60
2018-05-02T22:05:31.892Z,85.50
2018-05-02T22:07:59.317Z,85.90
2018-05-02T22:10:26.745Z,86.40
2018-05-02T22:12:54.935Z,87.50
2018-05-02T22:15:22.366Z,87.40
2018-05-02T22:17:49.782Z,88.20
2018-05-02T22:20:17.210Z,88.50
2018-05-02T22:22:44.638Z,88.70
2018-05-02T22:25:12.057Z,88.60
2018-05-02T22:27:39.495Z,88.50
2018-05-02T22:30:06.910Z,88.70
2018-05-02T22:32:34.361Z,88.80
2018-05-02T22:35:01.778Z,89.00
2018-05-02T22:37:29.210Z,89.10
2018-05-02T22:39:56.648Z,89.30
2018-05-02T22:42:24.070Z,89.30
2018-05-02T22:44:51.505Z,89.30
2018-05-02T22:47:18.942Z,89.40
2018-05-02T22:49:46.371Z,89.70
2018-05-02T22:52:13.785Z,89.80
2018-05-02T22:54:41.198Z,90.00
2018-05-02T22:57:08.622Z,90.00
2018-05-02T22:59:36.055Z,90.00
2018-05-02T23:02:03.486Z,90.00
2018-05-02T23:04:30.902Z,90.00
2018-05-02T23:06:58.340Z,90.10
2018-05-02T23:09:25.762Z,90.10
2018-05-02T23:11:53.194Z,90.10
2018-05-02T23:14:20.627Z,90.10
2018-05-02T23:16:48.054Z,90.10
2018-05-02T23:19:15.477Z,90.10
2018-05-02T23:21:42.893Z,90.10
2018-05-02T23:24:10.317Z,90.20
2018-05-02T23:26:37.741Z,90.30
2018-05-02T23:29:05.170Z,90.30
2018-05-02T23:31:32.595Z,90.30
2018-05-02T23:34:00.023Z,90.30
2018-05-02T23:36:27.442Z,90.30
2018-05-02T23:38:54.875Z,90.20
2018-05-02T23:41:22.616Z,90.00
2018-05-02T23:43:49.978Z,89.80
2018-05-02T23:46:17.409Z,89.80
2018-05-02T23:48:44.834Z,89.70
2018-05-02T23:51:12.249Z,89.80
2018-05-02T23:53:39.682Z,89.80
2018-05-02T23:56:07.102Z,89.70
2018-05-02T23:58:34.518Z,89.90
